Time,TemperatureF,DewpointF,PressureIn,WindDirection,WindDirectionDegrees,WindSpeedMPH,WindSpeedGustMPH,Humidity,HourlyPrecipIn,Conditions,Clouds,dailyrainin,SolarRadiationWatts/m^2,SoftwareType,DateUTC
2013-10-08 00:00:00,58.6,55.4,30.05,East,80,0.0,5.0,89,0.00,,,0.00,0,Wunderground v.1.15,2013-10-08 04:00:00,
2013-10-08 00:05:00,58.5,55.6,30.05,East,80,0.0,5.0,90,0.00,,,0.00,0,Wunderground v.1.15,2013-10-08 04:05:00,
2013-10-08 00:10:00,58.4,55.2,30.05,East,80,0.0,5.0,89,0.00,,,0.00,0,Wunderground v.1.15,2013-10-08 04:10:00,
2013-10-08 00:15:00,58.3,55.4,30.05,East,80,0.0,5.0,90,0.00,,,0.00,0,Wunderground v.1.15,2013-10-08 04:15:00,
2013-10-08 00:20:00,58.3,55.4,30.05,East,80,0.0,5.0,90,0.00,,,0.00,0,Wunderground v.1.15,2013-10-08 04:20:00,
2013-10-08 00:30:00,58.3,55.4,30.05,East,80,0.0,5.0,90,0.00,,,0.00,0,Wunderground v.1.15,2013-10-08 04:30:00,
2013-10-08 00:35:00,58.2,55.3,30.05,East,80,0.0,5.0,90,0.00,,,0.00,0,Wunderground v.1.15,2013-10-08 04:35:00,
2013-10-08 00:40:00,58.2,55.3,30.05,East,80,0.0,5.0,90,0.00,,,0.00,0,Wunderground v.1.15,2013-10-08 04:40:00,
2013-10-08 00:50:00,58.1,55.5,30.05,East,80,0.0,5.0,91,0.00,,,0.00,0,Wunderground v.1.15,2013-10-08 04:50:00,
2013-10-08 01:00:00,58.0,55.4,30.04,East,80,0.0,0.0,91,0.00,,,0.00,0,Wunderground v.1.15,2013-10-08 05:00:00,
2013-10-08 01:10:00,58.0,55.4,30.04,East,80,0.0,0.0,91,0.00,,,0.00,0,Wunderground v.1.15,2013-10-08 05:10:00,
2013-10-08 01:20:00,57.9,55.3,30.04,East,80,0.0,0.0,91,0.00,,,0.00,0,Wunderground v.1.15,2013-10-08 05:20:00,
2013-10-08 01:25:00,57.9,55.3,30.04,East,80,0.0,0.0,91,0.00,,,0.00,0,Wunderground v.1.15,2013-10-08 05:25:00,
2013-10-08 01:35:00,57.8,55.5,30.04,East,80,0.0,0.0,92,0.00,,,0.00,0,Wunderground v.1.15,2013-10-08 05:35:00,
2013-10-08 01:40:00,57.8,55.5,30.04,East,80,0.0,0.0,92,0.00,,,0.00,0,Wunderground v.1.15,2013-10-08 05:40:00,
2013-10-08 01:45:00,57.7,55.4,30.04,East,80,0.0,0.0,92,0.00,,,0.00,0,Wunderground v.1.15,2013-10-08 05:45:00,
2013-10-08 01:55:00,57.6,55.3,30.04,East,80,0.0,0.0,92,0.00,,,0.00,0,Wunderground v.1.15,2013-10-08 05:55:00,
2013-10-08 02:05:00,57.6,55.3,30.04,East,80,0.0,0.0,92,0.00,,,0.00,0,Wunderground v.1.15,2013-10-08 06:05:00,
2013-10-08 02:15:00,57.4,55.1,30.04,East,80,0.0,0.0,92,0.00,,,0.00,0,Wunderground v.1.15,2013-10-08 06:15:00,
2013-10-08 02:25:00,57.3,55.0,30.04,East,80,0.0,0.0,92,0.00,,,0.00,0,Wunderground v.1.15,2013-10-08 06:25:00,
2013-10-08 02:30:00,57.1,54.8,30.04,East,80,0.0,0.0,92,0.00,,,0.00,0,Wunderground v.1.15,2013-10-08 06:30:00,
2013-10-08 02:35:00,57.1,54.8,30.04,East,80,0.0,0.0,92,0.00,,,0.00,0,Wunderground v.1.15,2013-10-08 06:35:00,
2013-10-08 02:45:00,56.8,54.5,30.04,East,80,0.0,0.0,92,0.00,,,0.00,0,Wunderground v.1.15,2013-10-08 06:45:00,
2013-10-08 02:55:00,56.7,54.1,30.04,East,80,0.0,0.0,91,0.00,,,0.00,0,Wunderground v.1.15,2013-10-08 06:55:00,
2013-10-08 03:00:00,56.6,54.0,30.04,East,80,0.0,0.0,91,0.00,,,0.00,0,Wunderground v.1.15,2013-10-08 07:00:00,
2013-10-08 03:10:00,56.3,54.0,30.04,East,80,0.0,0.0,92,0.00,,,0.00,0,Wunderground v.1.15,2013-10-08 07:10:00,
2013-10-08 03:15:00,56.2,53.9,30.04,East,80,0.0,0.0,92,0.00,,,0.00,0,Wunderground v.1.15,2013-10-08 07:15:00,
2013-10-08 03:25:00,55.9,53.6,30.04,East,80,0.0,0.0,92,0.00,,,0.00,0,Wunderground v.1.15,2013-10-08 07:25:00,
2013-10-08 03:35:00,55.6,53.3,30.04,East,80,0.0,0.0,92,0.00,,,0.00,0,Wunderground v.1.15,2013-10-08 07:35:00,
2013-10-08 03:40:00,55.5,53.2,30.04,East,80,0.0,0.0,92,0.00,,,0.00,0,Wunderground v.1.15,2013-10-08 07:40:00,
2013-10-08 03:45:00,55.4,53.4,30.04,East,80,0.0,0.0,93,0.00,,,0.00,0,Wunderground v.1.15,2013-10-08 07:45:00,
2013-10-08 03:55:00,55.3,53.3,30.04,East,80,0.0,0.0,93,0.00,,,0.00,0,Wunderground v.1.15,2013-10-08 07:55:00,
2013-10-08 04:05:00,55.1,52.8,30.03,East,80,0.0,0.0,92,0.00,,,0.00,0,Wunderground v.1.15,2013-10-08 08:05:00,
2013-10-08 04:15:00,55.0,52.7,30.03,East,80,0.0,0.0,92,0.00,,,0.00,0,Wunderground v.1.15,2013-10-08 08:15:00,
2013-10-08 04:20:00,54.9,52.6,30.03,East,80,0.0,1.0,92,0.00,,,0.00,0,Wunderground v.1.15,2013-10-08 08:20:00,
2013-10-08 04:25:00,54.8,52.5,30.03,East,80,0.0,1.0,92,0.00,,,0.00,0,Wunderground v.1.15,2013-10-08 08:25:00,
2013-10-08 04:35:00,54.7,52.4,30.03,East,80,0.0,0.0,92,0.00,,,0.00,0,Wunderground v.1.15,2013-10-08 08:35:00,
2013-10-08 04:45:00,54.5,52.2,30.03,East,80,0.0,0.0,92,0.00,,,0.00,0,Wunderground v.1.15,2013-10-08 08:45:00,
2013-10-08 04:50:00,54.4,52.1,30.03,East,80,0.0,0.0,92,0.00,,,0.00,0,Wunderground v.1.15,2013-10-08 08:50:00,
2013-10-08 05:00:00,54.2,51.9,30.03,East,80,0.0,0.0,92,0.00,,,0.00,0,Wunderground v.1.15,2013-10-08 09:00:00,
2013-10-08 05:10:00,54.1,51.8,30.03,East,80,0.0,0.0,92,0.00,,,0.00,0,Wunderground v.1.15,2013-10-08 09:10:00,
2013-10-08 05:20:00,53.9,51.9,30.03,East,80,0.0,0.0,93,0.00,,,0.00,0,Wunderground v.1.15,2013-10-08 09:20:00,
2013-10-08 05:30:00,53.8,51.8,30.03,East,80,0.0,0.0,93,0.00,,,0.00,0,Wunderground v.1.15,2013-10-08 09:30:00,
2013-10-08 05:40:00,53.6,51.6,30.03,East,80,0.0,0.0,93,0.00,,,0.00,0,Wunderground v.1.15,2013-10-08 09:40:00,
2013-10-08 05:50:00,53.5,51.5,30.03,East,80,0.0,0.0,93,0.00,,,0.00,0,Wunderground v.1.15,2013-10-08 09:50:00,
2013-10-08 06:00:00,53.5,51.5,30.03,East,80,0.0,0.0,93,0.00,,,0.00,0,Wunderground v.1.15,2013-10-08 10:00:00,
2013-10-08 06:10:00,53.4,51.4,30.03,East,80,0.0,0.0,93,0.00,,,0.00,0,Wunderground v.1.15,2013-10-08 10:10:00,
2013-10-08 06:20:00,53.2,51.2,30.04,East,80,0.0,0.0,93,0.00,,,0.00,0,Wunderground v.1.15,2013-10-08 10:20:00,
2013-10-08 06:30:00,53.1,51.1,30.04,East,80,0.0,0.0,93,0.00,,,0.00,0,Wunderground v.1.15,2013-10-08 10:30:00,
2013-10-08 06:40:00,53.1,51.1,30.04,East,80,0.0,0.0,93,0.00,,,0.00,0,Wunderground v.1.15,2013-10-08 10:40:00,
2013-10-08 06:50:00,53.0,51.0,30.04,East,80,0.0,0.0,93,0.00,,,0.00,0,Wunderground v.1.15,2013-10-08 10:50:00,
2013-10-08 07:00:00,52.8,50.8,30.04,East,80,0.0,0.0,93,0.00,,,0.00,0,Wunderground v.1.15,2013-10-08 11:00:00,
2013-10-08 07:10:00,52.7,51.0,30.05,East,80,0.0,1.0,94,0.00,,,0.00,0,Wunderground v.1.15,2013-10-08 11:10:00,
2013-10-08 07:20:00,52.6,50.6,30.05,East,80,0.0,1.0,93,0.00,,,0.00,0,Wunderground v.1.15,2013-10-08 11:20:00,
2013-10-08 07:30:00,52.5,50.5,30.05,East,80,0.0,1.0,93,0.00,,,0.00,0,Wunderground v.1.15,2013-10-08 11:30:00,
2013-10-08 07:40:00,52.4,50.4,30.05,East,80,0.0,1.0,93,0.00,,,0.00,0,Wunderground v.1.15,2013-10-08 11:40:00,
2013-10-08 07:45:00,52.3,50.6,30.05,East,80,0.0,1.0,94,0.00,,,0.00,0,Wunderground v.1.15,2013-10-08 11:45:00,
2013-10-08 07:55:00,52.1,50.1,30.05,East,80,0.0,1.0,93,0.00,,,0.00,0,Wunderground v.1.15,2013-10-08 11:55:00,
2013-10-08 08:05:00,51.9,49.9,30.05,East,80,0.0,1.0,93,0.00,,,0.00,0,Wunderground v.1.15,2013-10-08 12:05:00,
2013-10-08 08:15:00,51.8,50.1,30.06,East,80,0.0,1.0,94,0.00,,,0.00,5,Wunderground v.1.15,2013-10-08 12:15:00,
2013-10-08 08:25:00,51.7,50.0,30.06,East,80,0.0,1.0,94,0.00,,,0.00,7,Wunderground v.1.15,2013-10-08 12:25:00,
2013-10-08 08:30:00,51.7,50.0,30.06,East,80,0.0,1.0,94,0.00,,,0.00,9,Wunderground v.1.15,2013-10-08 12:30:00,
2013-10-08 08:40:00,51.7,50.0,30.06,East,80,0.0,1.0,94,0.00,,,0.00,14,Wunderground v.1.15,2013-10-08 12:40:00,
2013-10-08 08:50:00,51.8,50.1,30.06,East,80,0.0,1.0,94,0.00,,,0.00,16,Wunderground v.1.15,2013-10-08 12:50:00,
2013-10-08 09:00:00,51.9,50.2,30.06,East,80,0.0,1.0,94,0.00,,,0.00,18,Wunderground v.1.15,2013-10-08 13:00:00,
2013-10-08 09:05:00,52.1,50.4,30.07,East,80,0.0,1.0,94,0.00,,,0.00,19,Wunderground v.1.15,2013-10-08 13:05:00,
2013-10-08 09:10:00,52.2,50.5,30.07,East,80,0.0,1.0,94,0.00,,,0.00,21,Wunderground v.1.15,2013-10-08 13:10:00,
2013-10-08 09:20:00,52.6,50.9,30.07,East,80,0.0,1.0,94,0.00,,,0.00,37,Wunderground v.1.15,2013-10-08 13:20:00,
2013-10-08 09:30:00,53.0,51.3,30.07,East,80,0.0,1.0,94,0.00,,,0.00,26,Wunderground v.1.15,2013-10-08 13:30:00,
2013-10-08 09:40:00,53.5,51.8,30.07,East,80,0.0,1.0,94,0.00,,,0.00,46,Wunderground v.1.15,2013-10-08 13:40:00,
2013-10-08 09:45:00,53.8,52.1,30.07,East,80,0.0,1.0,94,0.00,,,0.00,58,Wunderground v.1.15,2013-10-08 13:45:00,
2013-10-08 09:50:00,54.1,52.4,30.07,East,80,0.0,1.0,94,0.00,,,0.00,32,Wunderground v.1.15,2013-10-08 13:50:00,
2013-10-08 10:00:00,55.0,53.0,30.07,East,80,0.0,1.0,93,0.00,,,0.00,32,Wunderground v.1.15,2013-10-08 14:00:00,
2013-10-08 10:10:00,55.7,53.1,30.07,North,11,0.0,1.0,91,0.00,,,0.00,33,Wunderground v.1.15,2013-10-08 14:10:00,
2013-10-08 10:15:00,56.1,53.5,30.07,North,11,0.0,1.0,91,0.00,,,0.00,33,Wunderground v.1.15,2013-10-08 14:15:00,
2013-10-08 10:25:00,56.9,54.0,30.07,North,11,0.0,1.0,90,0.00,,,0.00,37,Wunderground v.1.15,2013-10-08 14:25:00,
2013-10-08 10:30:00,57.5,54.6,30.08,North,10,0.0,1.0,90,0.00,,,0.00,49,Wunderground v.1.15,2013-10-08 14:30:00,
2013-10-08 10:40:00,58.6,55.1,30.08,North,360,0.0,1.0,88,0.00,,,0.00,72,Wunderground v.1.15,2013-10-08 14:40:00,
2013-10-08 10:45:00,59.3,54.8,30.08,WNW,295,0.0,1.0,85,0.00,,,0.00,461,Wunderground v.1.15,2013-10-08 14:45:00,
2013-10-08 10:55:00,60.7,55.8,30.08,WNW,295,0.0,1.0,84,0.00,,,0.00,483,Wunderground v.1.15,2013-10-08 14:55:00,
2013-10-08 11:05:00,61.8,54.9,30.08,SE,139,0.0,1.0,78,0.00,,,0.00,179,Wunderground v.1.15,2013-10-08 15:05:00,
2013-10-08 11:15:00,62.9,55.2,30.08,North,360,0.0,1.0,76,0.00,,,0.00,557,Wunderground v.1.15,2013-10-08 15:15:00,
2013-10-08 11:25:00,64.1,54.1,30.08,NE,39,0.0,1.0,70,0.00,,,0.00,584,Wunderground v.1.15,2013-10-08 15:25:00,
2013-10-08 11:35:00,65.2,54.4,30.08,NNE,33,0.0,1.0,68,0.00,,,0.00,612,Wunderground v.1.15,2013-10-08 15:35:00,
2013-10-08 11:45:00,66.3,55.0,30.08,NNE,25,1.0,2.0,67,0.00,,,0.00,635,Wunderground v.1.15,2013-10-08 15:45:00,
2013-10-08 11:55:00,67.0,54.4,30.07,NNE,26,0.0,1.0,64,0.00,,,0.00,656,Wunderground v.1.15,2013-10-08 15:55:00,
2013-10-08 12:05:00,67.9,54.8,30.07,ESE,110,1.0,1.0,63,0.00,,,0.00,680,Wunderground v.1.15,2013-10-08 16:05:00,
2013-10-08 12:15:00,68.6,55.1,30.07,NNE,31,1.0,1.0,62,0.00,,,0.00,700,Wunderground v.1.15,2013-10-08 16:15:00,
2013-10-08 12:25:00,68.8,53.9,30.07,ENE,66,1.0,2.0,59,0.00,,,0.00,715,Wunderground v.1.15,2013-10-08 16:25:00,
2013-10-08 12:35:00,69.0,55.0,30.07,NNE,32,1.0,1.0,61,0.00,,,0.00,731,Wunderground v.1.15,2013-10-08 16:35:00,
2013-10-08 12:40:00,69.2,54.3,30.07,East,79,1.0,1.0,59,0.00,,,0.00,737,Wunderground v.1.15,2013-10-08 16:40:00,
2013-10-08 12:50:00,71.1,54.6,30.06,NNE,26,1.0,1.0,56,0.00,,,0.00,752,Wunderground v.1.15,2013-10-08 16:50:00,
2013-10-08 13:00:00,70.8,54.3,30.06,NNE,30,1.0,2.0,56,0.00,,,0.00,763,Wunderground v.1.15,2013-10-08 17:00:00,
2013-10-08 13:10:00,71.2,53.7,30.05,East,96,1.0,4.0,54,0.00,,,0.00,773,Wunderground v.1.15,2013-10-08 17:10:00,
2013-10-08 13:20:00,72.1,54.5,30.05,NE,42,1.0,4.0,54,0.00,,,0.00,782,Wunderground v.1.15,2013-10-08 17:20:00,
2013-10-08 13:25:00,71.9,54.3,30.05,NNE,32,1.0,4.0,54,0.00,,,0.00,786,Wunderground v.1.15,2013-10-08 17:25:00,
2013-10-08 13:30:00,71.8,53.2,30.05,South,173,1.0,4.0,52,0.00,,,0.00,766,Wunderground v.1.15,2013-10-08 17:30:00,
2013-10-08 13:40:00,71.4,53.4,30.05,WSW,246,1.0,1.0,53,0.00,,,0.00,793,Wunderground v.1.15,2013-10-08 17:40:00,
2013-10-08 13:50:00,72.9,54.8,30.04,NW,325,1.0,1.0,53,0.00,,,0.00,791,Wunderground v.1.15,2013-10-08 17:50:00,
2013-10-08 14:00:00,73.3,51.8,30.04,ENE,78,1.0,4.0,47,0.00,,,0.00,796,Wunderground v.1.15,2013-10-08 18:00:00,
2013-10-08 14:10:00,73.2,53.4,30.03,NW,315,1.0,4.0,50,0.00,,,0.00,793,Wunderground v.1.15,2013-10-08 18:10:00,
2013-10-08 14:20:00,73.8,52.3,30.03,ENE,61,1.0,1.0,47,0.00,,,0.00,789,Wunderground v.1.15,2013-10-08 18:20:00,
2013-10-08 14:25:00,74.3,53.3,30.02,ENE,75,1.0,4.0,48,0.00,,,0.00,789,Wunderground v.1.15,2013-10-08 18:25:00,
2013-10-08 14:35:00,74.1,53.2,30.02,ENE,71,1.0,4.0,48,0.00,,,0.00,780,Wunderground v.1.15,2013-10-08 18:35:00,
2013-10-08 14:45:00,74.6,53.0,30.02,NW,317,1.0,4.0,47,0.00,,,0.00,773,Wunderground v.1.15,2013-10-08 18:45:00,
2013-10-08 14:50:00,74.8,53.8,30.02,NNE,21,1.0,1.0,48,0.00,,,0.00,766,Wunderground v.1.15,2013-10-08 18:50:00,
2013-10-08 15:00:00,75.8,52.9,30.01,WNW,302,1.0,4.0,45,0.00,,,0.00,756,Wunderground v.1.15,2013-10-08 19:00:00,
2013-10-08 15:10:00,75.3,51.9,30.01,South,180,1.0,4.0,44,0.00,,,0.00,745,Wunderground v.1.15,2013-10-08 19:10:00,
2013-10-08 15:15:00,75.2,52.4,30.01,NW,309,1.0,4.0,45,0.00,,,0.00,738,Wunderground v.1.15,2013-10-08 19:15:00,
2013-10-08 15:25:00,75.8,51.7,30.00,WNW,290,1.0,4.0,43,0.00,,,0.00,722,Wunderground v.1.15,2013-10-08 19:25:00,
2013-10-08 15:30:00,76.4,52.2,30.00,ENE,57,1.0,4.0,43,0.00,,,0.00,714,Wunderground v.1.15,2013-10-08 19:30:00,
2013-10-08 15:40:00,77.1,52.9,30.00,NNW,338,0.0,4.0,43,0.00,,,0.00,694,Wunderground v.1.15,2013-10-08 19:40:00,
2013-10-08 15:45:00,77.4,51.9,30.00,NNW,347,0.0,4.0,41,0.00,,,0.00,687,Wunderground v.1.15,2013-10-08 19:45:00,
2013-10-08 15:55:00,77.1,52.2,30.00,SSW,200,1.0,4.0,42,0.00,,,0.00,670,Wunderground v.1.15,2013-10-08 19:55:00,
2013-10-08 16:00:00,75.8,52.3,29.99,SE,142,1.0,1.0,44,0.00,,,0.00,656,Wunderground v.1.15,2013-10-08 20:00:00,
2013-10-08 16:05:00,75.6,52.1,29.99,WSW,254,1.0,2.0,44,0.00,,,0.00,645,Wunderground v.1.15,2013-10-08 20:05:00,
2013-10-08 16:15:00,76.7,53.8,29.99,NW,304,1.0,4.0,45,0.00,,,0.00,622,Wunderground v.1.15,2013-10-08 20:15:00,
2013-10-08 16:20:00,76.6,52.4,29.99,West,267,1.0,1.0,43,0.00,,,0.00,612,Wunderground v.1.15,2013-10-08 20:20:00,
2013-10-08 16:25:00,76.3,52.8,29.99,SW,234,1.0,4.0,44,0.00,,,0.00,598,Wunderground v.1.15,2013-10-08 20:25:00,
2013-10-08 16:30:00,76.5,54.2,29.99,South,181,0.0,4.0,46,0.00,,,0.00,584,Wunderground v.1.15,2013-10-08 20:30:00,
2013-10-08 16:35:00,76.3,53.4,29.99,ENE,76,1.0,4.0,45,0.00,,,0.00,49,Wunderground v.1.15,2013-10-08 20:35:00,
2013-10-08 16:40:00,75.8,52.9,29.99,WNW,292,1.0,1.0,45,0.00,,,0.00,91,Wunderground v.1.15,2013-10-08 20:40:00,
2013-10-08 16:45:00,75.4,54.3,29.99,East,94,1.0,4.0,48,0.00,,,0.00,81,Wunderground v.1.15,2013-10-08 20:45:00,
2013-10-08 16:50:00,74.9,55.6,29.99,NNE,30,1.0,1.0,51,0.00,,,0.00,251,Wunderground v.1.15,2013-10-08 20:50:00,
2013-10-08 16:55:00,75.0,53.4,29.98,West,267,1.0,4.0,47,0.00,,,0.00,334,Wunderground v.1.15,2013-10-08 20:55:00,
2013-10-08 17:00:00,75.0,53.4,29.99,NW,324,1.0,1.0,47,0.00,,,0.00,88,Wunderground v.1.15,2013-10-08 21:00:00,
2013-10-08 17:10:00,75.1,53.5,29.99,North,5,1.0,1.0,47,0.00,,,0.00,446,Wunderground v.1.15,2013-10-08 21:10:00,
2013-10-08 17:20:00,74.5,55.2,29.98,North,5,0.0,4.0,51,0.00,,,0.00,113,Wunderground v.1.15,2013-10-08 21:20:00,
2013-10-08 17:30:00,74.2,53.8,29.98,NE,35,1.0,4.0,49,0.00,,,0.00,70,Wunderground v.1.15,2013-10-08 21:30:00,
2013-10-08 17:40:00,73.8,54.5,29.98,ENE,61,1.0,1.0,51,0.00,,,0.00,172,Wunderground v.1.15,2013-10-08 21:40:00,
2013-10-08 17:50:00,73.5,54.8,29.98,ENE,61,0.0,4.0,52,0.00,,,0.00,102,Wunderground v.1.15,2013-10-08 21:50:00,
2013-10-08 17:55:00,73.4,55.2,29.98,ENE,61,0.0,4.0,53,0.00,,,0.00,292,Wunderground v.1.15,2013-10-08 21:55:00,
2013-10-08 18:05:00,73.3,55.6,29.98,NE,42,0.0,4.0,54,0.00,,,0.00,288,Wunderground v.1.15,2013-10-08 22:05:00,
2013-10-08 18:10:00,73.2,56.1,29.98,NE,40,1.0,1.0,55,0.00,,,0.00,267,Wunderground v.1.15,2013-10-08 22:10:00,
2013-10-08 18:15:00,73.4,55.2,29.98,NNW,327,1.0,4.0,53,0.00,,,0.00,30,Wunderground v.1.15,2013-10-08 22:15:00,
2013-10-08 18:20:00,73.3,55.1,29.98,NNW,327,0.0,4.0,53,0.00,,,0.00,30,Wunderground v.1.15,2013-10-08 22:20:00,
2013-10-08 18:30:00,72.6,54.0,29.98,ENE,59,0.0,4.0,52,0.00,,,0.00,28,Wunderground v.1.15,2013-10-08 22:30:00,
2013-10-08 18:35:00,72.5,55.4,29.98,ENE,57,0.0,4.0,55,0.00,,,0.00,25,Wunderground v.1.15,2013-10-08 22:35:00,
2013-10-08 18:45:00,72.2,55.6,29.98,ENE,57,0.0,4.0,56,0.00,,,0.00,25,Wunderground v.1.15,2013-10-08 22:45:00,
2013-10-08 18:50:00,71.8,55.3,29.98,ENE,57,0.0,4.0,56,0.00,,,0.00,21,Wunderground v.1.15,2013-10-08 22:50:00,
2013-10-08 18:55:00,71.3,55.8,29.98,ENE,57,0.0,4.0,58,0.00,,,0.00,19,Wunderground v.1.15,2013-10-08 22:55:00,
2013-10-08 19:05:00,70.5,55.9,29.98,ENE,57,0.0,4.0,60,0.00,,,0.00,16,Wunderground v.1.15,2013-10-08 23:05:00,
2013-10-08 19:10:00,70.2,55.2,29.98,ENE,57,0.0,4.0,59,0.00,,,0.00,14,Wunderground v.1.15,2013-10-08 23:10:00,
2013-10-08 19:20:00,69.7,55.6,29.98,ENE,57,0.0,4.0,61,0.00,,,0.00,11,Wunderground v.1.15,2013-10-08 23:20:00,
2013-10-08 19:30:00,69.2,56.5,29.98,ENE,57,0.0,4.0,64,0.00,,,0.00,7,Wunderground v.1.15,2013-10-08 23:30:00,
2013-10-08 19:35:00,68.9,57.1,29.98,ENE,57,0.0,4.0,66,0.00,,,0.00,5,Wunderground v.1.15,2013-10-08 23:35:00,
2013-10-08 19:40:00,68.5,56.7,29.99,ENE,57,0.0,4.0,66,0.00,,,0.00,0,Wunderground v.1.15,2013-10-08 23:40:00,
2013-10-08 19:45:00,68.2,57.6,29.99,ENE,57,0.0,4.0,69,0.00,,,0.00,0,Wunderground v.1.15,2013-10-08 23:45:00,
2013-10-08 19:50:00,67.9,56.9,29.99,ENE,57,0.0,4.0,68,0.00,,,0.00,0,Wunderground v.1.15,2013-10-08 23:50:00,
2013-10-08 20:00:00,67.1,57.0,29.98,ENE,57,0.0,4.0,70,0.00,,,0.00,0,Wunderground v.1.15,2013-10-09 00:00:00,
2013-10-08 20:10:00,66.2,57.7,29.99,ENE,57,0.0,4.0,74,0.00,,,0.00,0,Wunderground v.1.15,2013-10-09 00:10:00,
2013-10-08 20:15:00,65.8,58.0,29.99,ENE,57,0.0,4.0,76,0.00,,,0.00,0,Wunderground v.1.15,2013-10-09 00:15:00,
2013-10-08 20:25:00,65.0,57.6,29.99,ENE,57,0.0,4.0,77,0.00,,,0.00,0,Wunderground v.1.15,2013-10-09 00:25:00,
2013-10-08 20:35:00,64.3,57.6,29.99,ENE,57,0.0,4.0,79,0.00,,,0.00,0,Wunderground v.1.15,2013-10-09 00:35:00,
2013-10-08 20:40:00,64.0,57.4,29.99,ENE,57,0.0,4.0,79,0.00,,,0.00,0,Wunderground v.1.15,2013-10-09 00:40:00,
2013-10-08 20:45:00,63.5,57.2,30.00,ENE,57,0.0,4.0,80,0.00,,,0.00,0,Wunderground v.1.15,2013-10-09 00:45:00,
2013-10-08 20:50:00,63.1,56.8,30.00,ENE,57,0.0,4.0,80,0.00,,,0.00,0,Wunderground v.1.15,2013-10-09 00:50:00,
2013-10-08 21:00:00,62.7,57.1,30.00,ENE,57,0.0,4.0,82,0.00,,,0.00,0,Wunderground v.1.15,2013-10-09 01:00:00,
2013-10-08 21:05:00,62.6,57.0,30.00,ENE,57,0.0,4.0,82,0.00,,,0.00,0,Wunderground v.1.15,2013-10-09 01:05:00,
2013-10-08 21:15:00,62.0,56.8,30.00,East,80,0.0,4.0,83,0.00,,,0.00,0,Wunderground v.1.15,2013-10-09 01:15:00,
2013-10-08 21:20:00,61.6,56.0,30.01,East,80,0.0,4.0,82,0.00,,,0.00,0,Wunderground v.1.15,2013-10-09 01:20:00,
2013-10-08 21:30:00,61.1,56.6,30.01,East,80,0.0,4.0,85,0.00,,,0.00,0,Wunderground v.1.15,2013-10-09 01:30:00,
2013-10-08 21:35:00,61.0,56.1,30.01,East,80,0.0,4.0,84,0.00,,,0.00,0,Wunderground v.1.15,2013-10-09 01:35:00,
2013-10-08 21:45:00,60.9,56.4,30.01,East,80,0.0,4.0,85,0.00,,,0.00,0,Wunderground v.1.15,2013-10-09 01:45:00,
2013-10-08 21:50:00,60.8,56.6,30.01,East,80,0.0,4.0,86,0.00,,,0.00,0,Wunderground v.1.15,2013-10-09 01:50:00,
2013-10-08 22:00:00,60.7,56.5,30.01,East,80,0.0,4.0,86,0.00,,,0.00,0,Wunderground v.1.15,2013-10-09 02:00:00,
2013-10-08 22:05:00,60.5,56.3,30.01,East,80,0.0,4.0,86,0.00,,,0.00,0,Wunderground v.1.15,2013-10-09 02:05:00,
2013-10-08 22:15:00,60.3,56.4,30.02,East,80,0.0,4.0,87,0.00,,,0.00,0,Wunderground v.1.15,2013-10-09 02:15:00,
2013-10-08 22:25:00,60.0,56.1,30.02,East,80,0.0,4.0,87,0.00,,,0.00,0,Wunderground v.1.15,2013-10-09 02:25:00,
2013-10-08 22:30:00,59.9,56.3,30.02,East,80,0.0,4.0,88,0.00,,,0.00,0,Wunderground v.1.15,2013-10-09 02:30:00,
2013-10-08 22:35:00,59.8,56.2,30.02,East,80,0.0,4.0,88,0.00,,,0.00,0,Wunderground v.1.15,2013-10-09 02:35:00,
2013-10-08 22:40:00,59.6,56.0,30.02,East,80,0.0,4.0,88,0.00,,,0.00,0,Wunderground v.1.15,2013-10-09 02:40:00,
2013-10-08 22:45:00,59.5,56.3,30.02,East,80,0.0,4.0,89,0.00,,,0.00,0,Wunderground v.1.15,2013-10-09 02:45:00,
2013-10-08 22:50:00,59.4,56.2,30.02,East,80,0.0,4.0,89,0.00,,,0.00,0,Wunderground v.1.15,2013-10-09 02:50:00,
2013-10-08 23:00:00,59.2,56.0,30.02,East,80,0.0,4.0,89,0.00,,,0.00,0,Wunderground v.1.15,2013-10-09 03:00:00,
2013-10-08 23:05:00,59.1,55.9,30.02,East,80,0.0,4.0,89,0.00,,,0.00,0,Wunderground v.1.15,2013-10-09 03:05:00,
2013-10-08 23:10:00,59.0,55.8,30.02,East,80,0.0,4.0,89,0.00,,,0.00,0,Wunderground v.1.15,2013-10-09 03:10:00,
2013-10-08 23:15:00,58.9,55.7,30.02,East,80,0.0,4.0,89,0.00,,,0.00,0,Wunderground v.1.15,2013-10-09 03:15:00,
2013-10-08 23:20:00,58.8,55.6,30.02,East,80,0.0,4.0,89,0.00,,,0.00,0,Wunderground v.1.15,2013-10-09 03:20:00,
2013-10-08 23:25:00,58.7,55.8,30.02,East,80,0.0,4.0,90,0.00,,,0.00,0,Wunderground v.1.15,2013-10-09 03:25:00,
2013-10-08 23:35:00,58.5,55.9,30.02,East,80,0.0,4.0,91,0.00,,,0.00,0,Wunderground v.1.15,2013-10-09 03:35:00,
2013-10-08 23:40:00,58.3,55.7,30.02,East,80,0.0,4.0,91,0.00,,,0.00,0,Wunderground v.1.15,2013-10-09 03:40:00,
2013-10-08 23:45:00,58.2,55.3,30.02,East,80,0.0,4.0,90,0.00,,,0.00,0,Wunderground v.1.15,2013-10-09 03:45:00,
2013-10-08 23:55:00,57.9,55.3,30.02,East,80,0.0,4.0,91,0.00,,,0.00,0,Wunderground v.1.15,2013-10-09 03:55:00,